sensor_id;sensor_type;location;lat;lon;timestamp;temperature;humidity
70246;SHT30;57637;49.272;8.590;2023-02-28T00:00:45;0.16;66.11
70246;SHT30;57637;49.272;8.590;2023-02-28T00:03:11;0.05;66.35
70246;SHT30;57637;49.272;8.590;2023-02-28T00:05:36;0.05;66.36
70246;SHT30;57637;49.272;8.590;2023-02-28T00:08:01;-0.08;66.70
70246;SHT30;57637;49.272;8.590;2023-02-28T00:10:28;-0.07;66.56
70246;SHT30;57637;49.272;8.590;2023-02-28T00:12:59;-0.15;67.14
70246;SHT30;57637;49.272;8.590;2023-02-28T00:15:27;-0.14;66.97
70246;SHT30;57637;49.272;8.590;2023-02-28T00:17:53;-0.15;67.07
70246;SHT30;57637;49.272;8.590;2023-02-28T00:20:18;-0.18;67.29
70246;SHT30;57637;49.272;8.590;2023-02-28T00:22:45;-0.11;66.49
70246;SHT30;57637;49.272;8.590;2023-02-28T00:25:14;-0.31;67.45
70246;SHT30;57637;49.272;8.590;2023-02-28T00:27:42;-0.38;67.77
70246;SHT30;57637;49.272;8.590;2023-02-28T00:30:08;-0.45;67.88
70246;SHT30;57637;49.272;8.590;2023-02-28T00:32:39;-0.42;67.90
70246;SHT30;57637;49.272;8.590;2023-02-28T00:35:04;-0.45;68.05
70246;SHT30;57637;49.272;8.590;2023-02-28T00:37:31;-0.42;67.97
70246;SHT30;57637;49.272;8.590;2023-02-28T00:39:56;-0.39;68.03
70246;SHT30;57637;49.272;8.590;2023-02-28T00:42:22;-0.43;68.12
70246;SHT30;57637;49.272;8.590;2023-02-28T00:44:48;-0.39;68.00
70246;SHT30;57637;49.272;8.590;2023-02-28T00:47:13;-0.39;67.99
70246;SHT30;57637;49.272;8.590;2023-02-28T00:49:39;-0.33;67.96
70246;SHT30;57637;49.272;8.590;2023-02-28T00:52:05;-0.25;67.71
70246;SHT30;57637;49.272;8.590;2023-02-28T00:54:30;-0.31;68.05
70246;SHT30;57637;49.272;8.590;2023-02-28T00:56:55;-0.33;68.19
70246;SHT30;57637;49.272;8.590;2023-02-28T00:59:21;-0.23;68.04
70246;SHT30;57637;49.272;8.590;2023-02-28T01:01:46;-0.26;68.10
70246;SHT30;57637;49.272;8.590;2023-02-28T01:04:13;-0.15;68.23
70246;SHT30;57637;49.272;8.590;2023-02-28T01:06:39;-0.25;68.60
70246;SHT30;57637;49.272;8.590;2023-02-28T01:09:06;-0.26;68.71
70246;SHT30;57637;49.272;8.590;2023-02-28T01:11:33;-0.18;68.67
70246;SHT30;57637;49.272;8.590;2023-02-28T01:13:59;-0.19;68.63
70246;SHT30;57637;49.272;8.590;2023-02-28T01:16:25;-0.26;68.76
70246;SHT30;57637;49.272;8.590;2023-02-28T01:18:51;-0.26;69.25
70246;SHT30;57637;49.272;8.590;2023-02-28T01:21:18;-0.17;69.14
70246;SHT30;57637;49.272;8.590;2023-02-28T01:23:45;-0.19;69.24
70246;SHT30;57637;49.272;8.590;2023-02-28T01:26:12;-0.25;69.46
70246;SHT30;57637;49.272;8.590;2023-02-28T01:28:42;-0.25;69.61
70246;SHT30;57637;49.272;8.590;2023-02-28T01:31:08;-0.21;69.65
70246;SHT30;57637;49.272;8.590;2023-02-28T01:33:34;-0.28;69.79
70246;SHT30;57637;49.272;8.590;2023-02-28T01:38:31;-0.32;70.23
70246;SHT30;57637;49.272;8.590;2023-02-28T01:40:57;-0.41;70.29
70246;SHT30;57637;49.272;8.590;2023-02-28T01:43:29;-0.36;70.32
70246;SHT30;57637;49.272;8.590;2023-02-28T01:45:57;-0.26;70.04
70246;SHT30;57637;49.272;8.590;2023-02-28T01:48:34;-0.32;70.34
70246;SHT30;57637;49.272;8.590;2023-02-28T01:51:05;-0.35;70.54
70246;SHT30;57637;49.272;8.590;2023-02-28T01:53:37;-0.33;70.53
70246;SHT30;57637;49.272;8.590;2023-02-28T01:56:14;-0.32;70.62
70246;SHT30;57637;49.272;8.590;2023-02-28T01:58:46;-0.21;70.17
70246;SHT30;57637;49.272;8.590;2023-02-28T02:01:12;-0.33;70.57
70246;SHT30;57637;49.272;8.590;2023-02-28T02:03:47;-0.35;70.82
70246;SHT30;57637;49.272;8.590;2023-02-28T02:06:20;-0.23;70.61
70246;SHT30;57637;49.272;8.590;2023-02-28T02:08:47;-0.31;70.72
70246;SHT30;57637;49.272;8.590;2023-02-28T02:11:12;-0.36;71.07
70246;SHT30;57637;49.272;8.590;2023-02-28T02:13:46;-0.28;70.79
70246;SHT30;57637;49.272;8.590;2023-02-28T02:33:06;-0.52;71.75
70246;SHT30;57637;49.272;8.590;2023-02-28T02:35:52;-0.53;71.86
70246;SHT30;57637;49.272;8.590;2023-02-28T02:41:19;-0.50;72.00
70246;SHT30;57637;49.272;8.590;2023-02-28T02:43:51;-0.46;71.75
70246;SHT30;57637;49.272;8.590;2023-02-28T02:46:27;-0.33;71.34
70246;SHT30;57637;49.272;8.590;2023-02-28T02:48:56;-0.46;71.60
70246;SHT30;57637;49.272;8.590;2023-02-28T02:51:25;-0.48;71.66
70246;SHT30;57637;49.272;8.590;2023-02-28T02:53:54;-0.49;71.82
70246;SHT30;57637;49.272;8.590;2023-02-28T02:56:25;-0.49;71.67
70246;SHT30;57637;49.272;8.590;2023-02-28T02:58:54;-0.52;71.78
70246;SHT30;57637;49.272;8.590;2023-02-28T03:01:25;-0.56;72.35
70246;SHT30;57637;49.272;8.590;2023-02-28T03:03:57;-0.70;72.77
70246;SHT30;57637;49.272;8.590;2023-02-28T03:06:26;-0.65;72.62
70246;SHT30;57637;49.272;8.590;2023-02-28T03:08:52;-0.69;72.66
70246;SHT30;57637;49.272;8.590;2023-02-28T03:11:18;-0.80;73.09
70246;SHT30;57637;49.272;8.590;2023-02-28T03:25:07;-0.63;72.63
70246;SHT30;57637;49.272;8.590;2023-02-28T03:33:27;-0.76;73.01
70246;SHT30;57637;49.272;8.590;2023-02-28T03:35:56;-0.79;72.95
70246;SHT30;57637;49.272;8.590;2023-02-28T03:38:36;-0.84;73.31
70246;SHT30;57637;49.272;8.590;2023-02-28T03:41:11;-0.84;73.38
70246;SHT30;57637;49.272;8.590;2023-02-28T03:43:45;-0.93;73.50
70246;SHT30;57637;49.272;8.590;2023-02-28T03:46:16;-0.93;73.57
70246;SHT30;57637;49.272;8.590;2023-02-28T03:48:49;-0.86;73.46
70246;SHT30;57637;49.272;8.590;2023-02-28T03:51:23;-0.82;73.26
70246;SHT30;57637;49.272;8.590;2023-02-28T03:53:56;-0.92;73.71
70246;SHT30;57637;49.272;8.590;2023-02-28T03:56:32;-0.93;73.73
70246;SHT30;57637;49.272;8.590;2023-02-28T03:59:10;-0.74;73.17
70246;SHT30;57637;49.272;8.590;2023-02-28T04:01:44;-0.84;73.46
70246;SHT30;57637;49.272;8.590;2023-02-28T04:04:12;-0.82;73.72
70246;SHT30;57637;49.272;8.590;2023-02-28T04:06:39;-0.87;73.74
70246;SHT30;57637;49.272;8.590;2023-02-28T04:09:06;-0.93;74.13
70246;SHT30;57637;49.272;8.590;2023-02-28T04:11:37;-0.94;74.22
70246;SHT30;57637;49.272;8.590;2023-02-28T04:14:04;-0.92;74.13
70246;SHT30;57637;49.272;8.590;2023-02-28T04:16:31;-0.93;74.19
70246;SHT30;57637;49.272;8.590;2023-02-28T04:18:58;-0.84;74.00
70246;SHT30;57637;49.272;8.590;2023-02-28T04:21:27;-0.93;74.28
70246;SHT30;57637;49.272;8.590;2023-02-28T04:23:53;-0.92;74.47
70246;SHT30;57637;49.272;8.590;2023-02-28T04:26:18;-0.89;74.34
70246;SHT30;57637;49.272;8.590;2023-02-28T04:28:44;-0.90;74.35
70246;SHT30;57637;49.272;8.590;2023-02-28T04:31:09;-0.87;74.38
70246;SHT30;57637;49.272;8.590;2023-02-28T04:33:34;-0.84;74.34
70246;SHT30;57637;49.272;8.590;2023-02-28T04:36:04;-0.79;74.13
70246;SHT30;57637;49.272;8.590;2023-02-28T04:38:32;-0.82;73.99
70246;SHT30;57637;49.272;8.590;2023-02-28T04:41:00;-0.79;73.83
70246;SHT30;57637;49.272;8.590;2023-02-28T04:43:26;-0.72;73.80
70246;SHT30;57637;49.272;8.590;2023-02-28T04:45:53;-0.69;73.64
70246;SHT30;57637;49.272;8.590;2023-02-28T04:48:22;-0.73;73.71
70246;SHT30;57637;49.272;8.590;2023-02-28T04:50:48;-0.72;73.67
70246;SHT30;57637;49.272;8.590;2023-02-28T04:53:14;-0.72;73.88
70246;SHT30;57637;49.272;8.590;2023-02-28T04:55:39;-0.70;73.90
70246;SHT30;57637;49.272;8.590;2023-02-28T04:58:05;-0.69;73.79
70246;SHT30;57637;49.272;8.590;2023-02-28T05:00:31;-0.69;73.73
70246;SHT30;57637;49.272;8.590;2023-02-28T05:02:56;-0.68;73.83
70246;SHT30;57637;49.272;8.590;2023-02-28T05:05:21;-0.68;74.00
70246;SHT30;57637;49.272;8.590;2023-02-28T05:07:47;-0.66;74.00
70246;SHT30;57637;49.272;8.590;2023-02-28T05:10:12;-0.60;74.08
70246;SHT30;57637;49.272;8.590;2023-02-28T05:12:37;-0.59;73.77
70246;SHT30;57637;49.272;8.590;2023-02-28T05:15:04;-0.62;73.67
70246;SHT30;57637;49.272;8.590;2023-02-28T05:17:30;-0.66;73.85
70246;SHT30;57637;49.272;8.590;2023-02-28T05:19:55;-0.63;73.98
70246;SHT30;57637;49.272;8.590;2023-02-28T05:22:21;-0.62;73.73
70246;SHT30;57637;49.272;8.590;2023-02-28T05:24:48;-0.58;73.63
70246;SHT30;57637;49.272;8.590;2023-02-28T05:27:13;-0.60;73.78
70246;SHT30;57637;49.272;8.590;2023-02-28T05:29:38;-0.60;73.78
70246;SHT30;57637;49.272;8.590;2023-02-28T05:32:10;-0.56;73.61
70246;SHT30;57637;49.272;8.590;2023-02-28T05:34:39;-0.55;73.64
70246;SHT30;57637;49.272;8.590;2023-02-28T05:37:06;-0.56;73.58
70246;SHT30;57637;49.272;8.590;2023-02-28T05:39:35;-0.55;73.35
70246;SHT30;57637;49.272;8.590;2023-02-28T05:42:01;-0.53;73.53
70246;SHT30;57637;49.272;8.590;2023-02-28T05:44:26;-0.50;73.34
70246;SHT30;57637;49.272;8.590;2023-02-28T05:46:51;-0.50;73.57
70246;SHT30;57637;49.272;8.590;2023-02-28T05:49:17;-0.50;73.67
70246;SHT30;57637;49.272;8.590;2023-02-28T05:51:42;-0.50;73.33
70246;SHT30;57637;49.272;8.590;2023-02-28T05:54:08;-0.52;73.53
70246;SHT30;57637;49.272;8.590;2023-02-28T05:56:33;-0.50;73.55
70246;SHT30;57637;49.272;8.590;2023-02-28T05:59:04;-0.53;73.76
70246;SHT30;57637;49.272;8.590;2023-02-28T06:01:39;-0.52;73.98
70246;SHT30;57637;49.272;8.590;2023-02-28T06:04:07;-0.45;73.52
70246;SHT30;57637;49.272;8.590;2023-02-28T06:06:34;-0.48;73.55
70246;SHT30;57637;49.272;8.590;2023-02-28T06:09:01;-0.43;73.61
70246;SHT30;57637;49.272;8.590;2023-02-28T06:11:28;-0.48;73.76
70246;SHT30;57637;49.272;8.590;2023-02-28T06:13:54;-0.48;73.50
70246;SHT30;57637;49.272;8.590;2023-02-28T06:16:21;-0.41;73.18
70246;SHT30;57637;49.272;8.590;2023-02-28T06:18:47;-0.42;73.13
70246;SHT30;57637;49.272;8.590;2023-02-28T06:21:12;-0.39;73.26
70246;SHT30;57637;49.272;8.590;2023-02-28T06:23:38;-0.46;73.21
70246;SHT30;57637;49.272;8.590;2023-02-28T06:26:03;-0.45;73.22
70246;SHT30;57637;49.272;8.590;2023-02-28T06:28:29;-0.43;73.20
70246;SHT30;57637;49.272;8.590;2023-02-28T06:30:54;-0.42;73.26
70246;SHT30;57637;49.272;8.590;2023-02-28T06:33:20;-0.42;73.27
70246;SHT30;57637;49.272;8.590;2023-02-28T06:35:51;-0.39;73.27
70246;SHT30;57637;49.272;8.590;2023-02-28T06:38:17;-0.39;73.00
70246;SHT30;57637;49.272;8.590;2023-02-28T06:40:43;-0.38;73.05
70246;SHT30;57637;49.272;8.590;2023-02-28T06:43:09;-0.31;72.78
70246;SHT30;57637;49.272;8.590;2023-02-28T06:45:40;-0.26;72.52
70246;SHT30;57637;49.272;8.590;2023-02-28T06:48:06;-0.19;72.54
70246;SHT30;57637;49.272;8.590;2023-02-28T06:50:32;-0.11;72.01
70246;SHT30;57637;49.272;8.590;2023-02-28T06:52:58;-0.02;71.67
70246;SHT30;57637;49.272;8.590;2023-02-28T06:55:23;0.03;71.85
70246;SHT30;57637;49.272;8.590;2023-02-28T06:57:48;0.02;71.58
70246;SHT30;57637;49.272;8.590;2023-02-28T07:00:15;0.01;71.71
70246;SHT30;57637;49.272;8.590;2023-02-28T07:02:41;-0.02;71.75
70246;SHT30;57637;49.272;8.590;2023-02-28T07:05:06;-0.02;71.68
70246;SHT30;57637;49.272;8.590;2023-02-28T07:07:32;0.12;71.59
70246;SHT30;57637;49.272;8.590;2023-02-28T07:09:58;0.20;71.24
70246;SHT30;57637;49.272;8.590;2023-02-28T07:12:23;0.22;71.28
70246;SHT30;57637;49.272;8.590;2023-02-28T07:14:49;0.30;71.21
70246;SHT30;57637;49.272;8.590;2023-02-28T07:17:14;0.23;70.89
70246;SHT30;57637;49.272;8.590;2023-02-28T07:19:39;0.36;70.63
70246;SHT30;57637;49.272;8.590;2023-02-28T07:22:05;0.43;70.49
70246;SHT30;57637;49.272;8.590;2023-02-28T07:24:31;0.46;70.97
70246;SHT30;57637;49.272;8.590;2023-02-28T07:26:57;0.36;70.56
70246;SHT30;57637;49.272;8.590;2023-02-28T07:29:24;0.50;70.05
70246;SHT30;57637;49.272;8.590;2023-02-28T07:31:49;0.52;70.09
70246;SHT30;57637;49.272;8.590;2023-02-28T07:34:17;0.54;69.85
70246;SHT30;57637;49.272;8.590;2023-02-28T07:36:43;0.44;70.24
70246;SHT30;57637;49.272;8.590;2023-02-28T07:39:09;0.61;69.70
70246;SHT30;57637;49.272;8.590;2023-02-28T07:41:35;1.02;69.08
70246;SHT30;57637;49.272;8.590;2023-02-28T07:44:04;0.70;69.44
70246;SHT30;57637;49.272;8.590;2023-02-28T07:46:30;0.95;68.90
70246;SHT30;57637;49.272;8.590;2023-02-28T07:49:00;0.99;68.71
70246;SHT30;57637;49.272;8.590;2023-02-28T07:51:27;0.97;68.37
70246;SHT30;57637;49.272;8.590;2023-02-28T07:53:56;0.92;68.47
70246;SHT30;57637;49.272;8.590;2023-02-28T07:56:21;0.83;68.75
70246;SHT30;57637;49.272;8.590;2023-02-28T07:58:47;0.91;68.65
70246;SHT30;57637;49.272;8.590;2023-02-28T08:01:12;0.95;68.84
70246;SHT30;57637;49.272;8.590;2023-02-28T08:03:38;0.85;68.07
70246;SHT30;57637;49.272;8.590;2023-02-28T08:06:05;0.97;68.33
70246;SHT30;57637;49.272;8.590;2023-02-28T08:08:32;0.78;68.38
70246;SHT30;57637;49.272;8.590;2023-02-28T08:11:00;1.06;68.05
70246;SHT30;57637;49.272;8.590;2023-02-28T08:13:28;1.09;67.99
70246;SHT30;57637;49.272;8.590;2023-02-28T08:15:54;1.21;67.69
70246;SHT30;57637;49.272;8.590;2023-02-28T08:18:21;0.87;68.02
70246;SHT30;57637;49.272;8.590;2023-02-28T08:20:48;1.01;67.60
70246;SHT30;57637;49.272;8.590;2023-02-28T08:23:13;0.99;67.86
70246;SHT30;57637;49.272;8.590;2023-02-28T08:25:39;1.11;67.71
70246;SHT30;57637;49.272;8.590;2023-02-28T08:28:04;1.19;67.36
70246;SHT30;57637;49.272;8.590;2023-02-28T08:30:30;1.16;67.53
70246;SHT30;57637;49.272;8.590;2023-02-28T08:32:56;1.18;67.37
70246;SHT30;57637;49.272;8.590;2023-02-28T08:35:21;1.32;67.21
70246;SHT30;57637;49.272;8.590;2023-02-28T08:37:47;1.18;67.45
70246;SHT30;57637;49.272;8.590;2023-02-28T08:40:13;1.19;67.34
70246;SHT30;57637;49.272;8.590;2023-02-28T08:42:43;1.59;66.99
70246;SHT30;57637;49.272;8.590;2023-02-28T08:45:09;1.66;66.60
70246;SHT30;57637;49.272;8.590;2023-02-28T08:47:35;1.63;66.43
70246;SHT30;57637;49.272;8.590;2023-02-28T08:50:01;1.49;66.65
70246;SHT30;57637;49.272;8.590;2023-02-28T08:52:26;1.56;66.25
70246;SHT30;57637;49.272;8.590;2023-02-28T08:54:52;1.70;66.15
70246;SHT30;57637;49.272;8.590;2023-02-28T08:57:17;1.79;65.84
70246;SHT30;57637;49.272;8.590;2023-02-28T08:59:42;1.59;65.91
70246;SHT30;57637;49.272;8.590;2023-02-28T09:02:08;1.60;65.79
70246;SHT30;57637;49.272;8.590;2023-02-28T09:04:37;1.77;65.69
70246;SHT30;57637;49.272;8.590;2023-02-28T09:07:02;1.73;65.53
70246;SHT30;57637;49.272;8.590;2023-02-28T09:09:27;1.79;65.93
70246;SHT30;57637;49.272;8.590;2023-02-28T09:11:55;2.01;64.95
70246;SHT30;57637;49.272;8.590;2023-02-28T09:14:21;1.90;64.94
70246;SHT30;57637;49.272;8.590;2023-02-28T09:16:46;1.94;64.85
70246;SHT30;57637;49.272;8.590;2023-02-28T09:19:12;1.87;65.11
70246;SHT30;57637;49.272;8.590;2023-02-28T09:21:37;2.07;64.93
70246;SHT30;57637;49.272;8.590;2023-02-28T09:24:03;2.15;64.30
70246;SHT30;57637;49.272;8.590;2023-02-28T09:26:28;2.44;64.27
70246;SHT30;57637;49.272;8.590;2023-02-28T09:28:54;2.71;63.57
70246;SHT30;57637;49.272;8.590;2023-02-28T09:31:21;2.88;62.82
70246;SHT30;57637;49.272;8.590;2023-02-28T09:33:52;3.02;62.25
70246;SHT30;57637;49.272;8.590;2023-02-28T09:36:20;2.85;62.65
70246;SHT30;57637;49.272;8.590;2023-02-28T09:38:46;3.06;62.90
70246;SHT30;57637;49.272;8.590;2023-02-28T09:41:19;2.86;61.93
70246;SHT30;57637;49.272;8.590;2023-02-28T09:43:51;2.83;62.48
70246;SHT30;57637;49.272;8.590;2023-02-28T09:49:01;2.85;61.06
70246;SHT30;57637;49.272;8.590;2023-02-28T09:51:35;3.26;60.65
70246;SHT30;57637;49.272;8.590;2023-02-28T09:54:06;3.24;60.98
70246;SHT30;57637;49.272;8.590;2023-02-28T09:56:41;3.09;61.47
70246;SHT30;57637;49.272;8.590;2023-02-28T10:02:14;2.86;61.32
70246;SHT30;57637;49.272;8.590;2023-02-28T10:12:59;3.13;60.68
70246;SHT30;57637;49.272;8.590;2023-02-28T10:15:28;3.23;59.96
70246;SHT30;57637;49.272;8.590;2023-02-28T10:18:00;3.26;59.31
70246;SHT30;57637;49.272;8.590;2023-02-28T10:20:29;3.54;59.24
70246;SHT30;57637;49.272;8.590;2023-02-28T10:23:04;3.46;59.40
70246;SHT30;57637;49.272;8.590;2023-02-28T10:25:45;3.48;59.36
70246;SHT30;57637;49.272;8.590;2023-02-28T10:28:17;3.74;58.11
70246;SHT30;57637;49.272;8.590;2023-02-28T10:30:43;3.64;58.65
70246;SHT30;57637;49.272;8.590;2023-02-28T10:33:19;3.79;58.94
70246;SHT30;57637;49.272;8.590;2023-02-28T10:35:48;3.58;58.70
70246;SHT30;57637;49.272;8.590;2023-02-28T10:38:18;3.60;59.03
70246;SHT30;57637;49.272;8.590;2023-02-28T10:41:11;3.38;58.81
70246;SHT30;57637;49.272;8.590;2023-02-28T10:43:51;3.48;58.10
70246;SHT30;57637;49.272;8.590;2023-02-28T10:46:17;3.73;58.31
70246;SHT30;57637;49.272;8.590;2023-02-28T10:49:01;4.13;57.86
70246;SHT30;57637;49.272;8.590;2023-02-28T10:51:37;3.81;56.63
70246;SHT30;57637;49.272;8.590;2023-02-28T10:54:03;3.81;58.05
70246;SHT30;57637;49.272;8.590;2023-02-28T10:56:30;4.10;57.25
70246;SHT30;57637;49.272;8.590;2023-02-28T11:01:48;3.24;58.32
70246;SHT30;57637;49.272;8.590;2023-02-28T11:07:16;3.95;57.64
70246;SHT30;57637;49.272;8.590;2023-02-28T11:09:48;3.91;56.71
70246;SHT30;57637;49.272;8.590;2023-02-28T11:14:54;4.08;57.07
70246;SHT30;57637;49.272;8.590;2023-02-28T11:17:27;4.10;56.75
70246;SHT30;57637;49.272;8.590;2023-02-28T11:20:04;4.15;56.98
70246;SHT30;57637;49.272;8.590;2023-02-28T11:22:33;4.22;56.60
70246;SHT30;57637;49.272;8.590;2023-02-28T11:25:07;4.30;56.69
70246;SHT30;57637;49.272;8.590;2023-02-28T11:27:49;4.61;56.55
70246;SHT30;57637;49.272;8.590;2023-02-28T11:33:01;4.60;55.90
70246;SHT30;57637;49.272;8.590;2023-02-28T11:35:55;4.48;55.63
70246;SHT30;57637;49.272;8.590;2023-02-28T11:38:25;4.43;55.50
70246;SHT30;57637;49.272;8.590;2023-02-28T11:43:27;4.70;55.09
70246;SHT30;57637;49.272;8.590;2023-02-28T11:46:06;4.66;54.93
70246;SHT30;57637;49.272;8.590;2023-02-28T11:48:57;4.43;54.85
70246;SHT30;57637;49.272;8.590;2023-02-28T11:51:28;4.73;55.08
70246;SHT30;57637;49.272;8.590;2023-02-28T11:57:02;4.79;54.25
70246;SHT30;57637;49.272;8.590;2023-02-28T11:59:49;4.50;54.76
70246;SHT30;57637;49.272;8.590;2023-02-28T12:02:26;4.28;55.54
70246;SHT30;57637;49.272;8.590;2023-02-28T12:07:45;4.61;55.47
70246;SHT30;57637;49.272;8.590;2023-02-28T12:10:22;4.60;55.21
70246;SHT30;57637;49.272;8.590;2023-02-28T12:17:51;4.22;56.12
70246;SHT30;57637;49.272;8.590;2023-02-28T12:20:41;4.50;55.56
70246;SHT30;57637;49.272;8.590;2023-02-28T12:23:19;4.69;55.09
70246;SHT30;57637;49.272;8.590;2023-02-28T12:28:50;4.42;55.11
70246;SHT30;57637;49.272;8.590;2023-02-28T12:31:23;4.53;56.03
70246;SHT30;57637;49.272;8.590;2023-02-28T12:33:51;4.39;55.64
70246;SHT30;57637;49.272;8.590;2023-02-28T12:36:19;4.46;56.29
70246;SHT30;57637;49.272;8.590;2023-02-28T12:38:52;4.45;56.53
70246;SHT30;57637;49.272;8.590;2023-02-28T12:44:23;4.42;56.41
70246;SHT30;57637;49.272;8.590;2023-02-28T12:46:56;4.50;55.78
70246;SHT30;57637;49.272;8.590;2023-02-28T12:49:27;4.43;55.63
70246;SHT30;57637;49.272;8.590;2023-02-28T12:51:56;4.71;55.46
70246;SHT30;57637;49.272;8.590;2023-02-28T12:59:58;4.81;54.47
70246;SHT30;57637;49.272;8.590;2023-02-28T13:10:50;4.70;55.09
70246;SHT30;57637;49.272;8.590;2023-02-28T13:13:20;4.61;55.18
70246;SHT30;57637;49.272;8.590;2023-02-28T13:18:27;4.36;55.49
70246;SHT30;57637;49.272;8.590;2023-02-28T13:20:56;4.42;56.02
70246;SHT30;57637;49.272;8.590;2023-02-28T13:29:02;4.98;54.54
70246;SHT30;57637;49.272;8.590;2023-02-28T13:39:46;5.41;53.72
70246;SHT30;57637;49.272;8.590;2023-02-28T13:45:18;5.44;53.75
70246;SHT30;57637;49.272;8.590;2023-02-28T13:50:49;5.18;53.45
70246;SHT30;57637;49.272;8.590;2023-02-28T13:55:49;5.25;53.68
70246;SHT30;57637;49.272;8.590;2023-02-28T14:06:46;5.41;52.85
70246;SHT30;57637;49.272;8.590;2023-02-28T14:12:51;5.99;52.50
70246;SHT30;57637;49.272;8.590;2023-02-28T14:17:52;5.87;52.31
70246;SHT30;57637;49.272;8.590;2023-02-28T14:20:20;5.49;51.86
70246;SHT30;57637;49.272;8.590;2023-02-28T14:25:54;5.58;52.70
70246;SHT30;57637;49.272;8.590;2023-02-28T14:31:36;5.17;53.76
70246;SHT30;57637;49.272;8.590;2023-02-28T14:36:37;5.41;53.30
70246;SHT30;57637;49.272;8.590;2023-02-28T14:39:06;5.14;53.88
70246;SHT30;57637;49.272;8.590;2023-02-28T14:41:38;5.07;54.38
70246;SHT30;57637;49.272;8.590;2023-02-28T14:44:15;5.10;54.12
70246;SHT30;57637;49.272;8.590;2023-02-28T14:47:11;5.32;53.45
70246;SHT30;57637;49.272;8.590;2023-02-28T14:49:44;5.44;53.68
70246;SHT30;57637;49.272;8.590;2023-02-28T14:52:22;5.34;53.70
70246;SHT30;57637;49.272;8.590;2023-02-28T14:55:05;5.59;54.10
70246;SHT30;57637;49.272;8.590;2023-02-28T14:57:40;5.27;53.83
70246;SHT30;57637;49.272;8.590;2023-02-28T15:00:16;5.27;53.58
70246;SHT30;57637;49.272;8.590;2023-02-28T15:02:45;5.38;53.93
70246;SHT30;57637;49.272;8.590;2023-02-28T15:07:46;5.14;54.21
70246;SHT30;57637;49.272;8.590;2023-02-28T15:12:41;5.21;54.41
70246;SHT30;57637;49.272;8.590;2023-02-28T15:15:17;5.31;54.68
70246;SHT30;57637;49.272;8.590;2023-02-28T15:17:48;5.12;54.71
70246;SHT30;57637;49.272;8.590;2023-02-28T15:20:19;5.11;54.82
70246;SHT30;57637;49.272;8.590;2023-02-28T15:22:45;5.05;54.99
70246;SHT30;57637;49.272;8.590;2023-02-28T15:25:13;4.91;54.81
70246;SHT30;57637;49.272;8.590;2023-02-28T15:27:44;4.80;54.86
70246;SHT30;57637;49.272;8.590;2023-02-28T15:30:15;5.07;55.40
70246;SHT30;57637;49.272;8.590;2023-02-28T15:33:01;4.93;55.61
70246;SHT30;57637;49.272;8.590;2023-02-28T15:35:42;4.88;55.64
70246;SHT30;57637;49.272;8.590;2023-02-28T15:38:17;4.93;55.77
70246;SHT30;57637;49.272;8.590;2023-02-28T15:40:52;4.98;55.89
70246;SHT30;57637;49.272;8.590;2023-02-28T15:43:26;4.94;55.37
70246;SHT30;57637;49.272;8.590;2023-02-28T15:53:45;4.80;56.20
70246;SHT30;57637;49.272;8.590;2023-02-28T15:56:27;4.84;55.78
70246;SHT30;57637;49.272;8.590;2023-02-28T15:58:56;4.81;55.68
70246;SHT30;57637;49.272;8.590;2023-02-28T16:01:24;4.73;55.56
70246;SHT30;57637;49.272;8.590;2023-02-28T16:03:55;4.70;55.92
70246;SHT30;57637;49.272;8.590;2023-02-28T16:06:32;4.71;56.06
70246;SHT30;57637;49.272;8.590;2023-02-28T16:09:03;4.64;56.29
70246;SHT30;57637;49.272;8.590;2023-02-28T16:11:30;4.61;56.22
70246;SHT30;57637;49.272;8.590;2023-02-28T16:13:58;4.57;56.39
70246;SHT30;57637;49.272;8.590;2023-02-28T16:16:24;4.50;56.34
70246;SHT30;57637;49.272;8.590;2023-02-28T16:18:51;4.49;56.23
70246;SHT30;57637;49.272;8.590;2023-02-28T16:21:16;4.50;56.58
70246;SHT30;57637;49.272;8.590;2023-02-28T16:23:42;4.45;56.46
70246;SHT30;57637;49.272;8.590;2023-02-28T16:26:07;4.42;56.51
70246;SHT30;57637;49.272;8.590;2023-02-28T16:28:34;4.39;56.66
70246;SHT30;57637;49.272;8.590;2023-02-28T16:31:02;4.38;56.93
70246;SHT30;57637;49.272;8.590;2023-02-28T16:33:33;4.33;57.30
70246;SHT30;57637;49.272;8.590;2023-02-28T16:35:59;4.28;57.66
70246;SHT30;57637;49.272;8.590;2023-02-28T16:38:25;4.35;58.51
70246;SHT30;57637;49.272;8.590;2023-02-28T16:40:51;4.67;56.43
70246;SHT30;57637;49.272;8.590;2023-02-28T16:43:22;4.35;57.00
70246;SHT30;57637;49.272;8.590;2023-02-28T16:45:53;4.26;57.35
70246;SHT30;57637;49.272;8.590;2023-02-28T16:48:20;4.16;57.85
70246;SHT30;57637;49.272;8.590;2023-02-28T16:50:46;4.12;57.70
70246;SHT30;57637;49.272;8.590;2023-02-28T16:53:11;4.05;58.09
70246;SHT30;57637;49.272;8.590;2023-02-28T16:55:36;3.99;58.38
70246;SHT30;57637;49.272;8.590;2023-02-28T16:58:03;3.97;58.29
70246;SHT30;57637;49.272;8.590;2023-02-28T17:00:29;3.95;58.28
70246;SHT30;57637;49.272;8.590;2023-02-28T17:02:56;3.91;58.29
70246;SHT30;57637;49.272;8.590;2023-02-28T17:05:22;3.85;58.31
70246;SHT30;57637;49.272;8.590;2023-02-28T17:07:48;3.77;58.72
70246;SHT30;57637;49.272;8.590;2023-02-28T17:10:15;3.73;59.20
70246;SHT30;57637;49.272;8.590;2023-02-28T17:12:42;3.67;59.12
70246;SHT30;57637;49.272;8.590;2023-02-28T17:15:09;3.68;59.06
70246;SHT30;57637;49.272;8.590;2023-02-28T17:17:36;3.60;59.38
70246;SHT30;57637;49.272;8.590;2023-02-28T17:20:01;3.61;59.25
70246;SHT30;57637;49.272;8.590;2023-02-28T17:22:28;3.54;59.62
70246;SHT30;57637;49.272;8.590;2023-02-28T17:24:53;3.43;60.19
70246;SHT30;57637;49.272;8.590;2023-02-28T17:27:22;3.30;60.90
70246;SHT30;57637;49.272;8.590;2023-02-28T17:29:48;3.22;61.02
70246;SHT30;57637;49.272;8.590;2023-02-28T17:32:14;3.14;61.34
70246;SHT30;57637;49.272;8.590;2023-02-28T17:34:39;3.12;61.25
70246;SHT30;57637;49.272;8.590;2023-02-28T17:37:04;3.17;60.89
70246;SHT30;57637;49.272;8.590;2023-02-28T17:39:30;3.17;60.88
70246;SHT30;57637;49.272;8.590;2023-02-28T17:41:56;3.20;60.89
70246;SHT30;57637;49.272;8.590;2023-02-28T17:44:21;3.12;61.03
70246;SHT30;57637;49.272;8.590;2023-02-28T17:46:51;3.37;64.30
70246;SHT30;57637;49.272;8.590;2023-02-28T17:49:19;3.10;61.33
70246;SHT30;57637;49.272;8.590;2023-02-28T17:51:45;2.95;62.02
70246;SHT30;57637;49.272;8.590;2023-02-28T17:54:11;2.86;62.05
70246;SHT30;57637;49.272;8.590;2023-02-28T17:56:38;2.88;61.65
70246;SHT30;57637;49.272;8.590;2023-02-28T17:59:04;2.73;61.91
70246;SHT30;57637;49.272;8.590;2023-02-28T18:01:30;2.68;62.32
70246;SHT30;57637;49.272;8.590;2023-02-28T18:03:55;2.59;62.62
70246;SHT30;57637;49.272;8.590;2023-02-28T18:06:22;2.56;62.69
70246;SHT30;57637;49.272;8.590;2023-02-28T18:09:24;2.55;62.37
70246;SHT30;57637;49.272;8.590;2023-02-28T18:11:51;2.56;62.38
70246;SHT30;57637;49.272;8.590;2023-02-28T18:14:19;2.55;62.35
70246;SHT30;57637;49.272;8.590;2023-02-28T18:16:47;2.48;62.54
70246;SHT30;57637;49.272;8.590;2023-02-28T18:19:13;2.45;62.69
70246;SHT30;57637;49.272;8.590;2023-02-28T18:21:45;2.40;62.77
70246;SHT30;57637;49.272;8.590;2023-02-28T18:24:12;2.44;62.77
70246;SHT30;57637;49.272;8.590;2023-02-28T18:26:39;2.38;62.87
70246;SHT30;57637;49.272;8.590;2023-02-28T18:29:06;2.46;62.56